Time;durP1;ratioP1;P1;durP2;ratioP2;P2;SDS_P1;SDS_P2;PMS_P1;PMS_P2;Temp;Humidity;BMP_temperature;BMP_pressure;BME280_temperature;BME280_humidity;BME280_pressure;Samples;Min_cycle;Max_cycle;Signal;HPM_P1;HPM_P2
2021/12/13 00:02:06;;;;;;;6.10;2.60;;;;;;;18.65;51.01;101474.72;5110215;28;20829;-60
2021/12/13 00:04:55;;;;;;;5.80;2.80;;;;;;;18.67;50.99;101460.91;5111443;28;20418;-59
2021/12/13 00:07:27;;;;;;;7.80;3.30;;;;;;;18.63;51.39;101457.09;5090758;28;20797;-60
2021/12/13 00:09:53;;;;;;;9.10;3.23;;;;;;;18.63;51.21;101465.69;5090770;28;20432;-59
2021/12/13 00:12:29;;;;;;;9.70;3.33;;;;;;;18.65;50.96;101463.28;5093946;28;20439;-59
2021/12/13 00:14:55;;;;;;;5.47;2.73;;;;;;;18.63;51.29;101454.25;5092845;28;20445;-60
2021/12/13 00:17:23;;;;;;;5.73;2.80;;;;;;;18.63;51.10;101457.09;5109320;28;20471;-59
2021/12/13 00:19:55;;;;;;;9.67;3.17;;;;;;;18.66;51.20;101458.41;5107180;28;20185;-59
2021/12/13 00:22:25;;;;;;;4.20;2.57;;;;;;;18.60;51.56;101454.94;5094804;28;20431;-60
2021/12/13 00:24:51;;;;;;;5.30;3.37;;;;;;;18.63;51.26;101454.25;5090752;28;20888;-59
2021/12/13 00:27:20;;;;;;;7.70;3.70;;;;;;;18.62;51.43;101455.41;5104819;28;20437;-59
2021/12/13 00:29:56;;;;;;;7.90;2.90;;;;;;;18.64;51.44;101460.78;5073799;28;20550;-60
2021/12/13 00:32:46;;;;;;;8.80;3.57;;;;;;;18.61;51.34;101468.03;5093807;28;20435;-59
2021/12/13 00:35:14;;;;;;;6.30;2.60;;;;;;;18.61;51.40;101467.22;5091098;28;20412;-59
2021/12/13 00:37:45;;;;;;;5.47;3.37;;;;;;;18.61;51.50;101450.88;5099606;27;20471;-59
2021/12/13 00:40:13;;;;;;;6.43;2.90;;;;;;;18.64;51.41;101464.47;5098949;28;20985;-59
2021/12/13 00:43:21;;;;;;;8.60;3.73;;;;;;;18.62;51.21;101469.69;5094912;28;20426;-59
2021/12/13 00:45:58;;;;;;;5.87;2.97;;;;;;;18.63;51.40;101470.53;5107847;27;20505;-59
2021/12/13 00:48:24;;;;;;;6.53;3.00;;;;;;;18.60;51.31;101466.38;5111399;28;20773;-59
2021/12/13 00:50:54;;;;;;;4.53;2.43;;;;;;;18.62;51.28;101469.69;5092703;28;20430;-59
2021/12/13 00:53:20;;;;;;;7.73;3.03;;;;;;;18.57;51.26;101484.22;5111725;28;20496;-59
2021/12/13 00:55:46;;;;;;;5.50;2.73;;;;;;;18.59;51.66;101481.88;5101852;28;20445;-59
2021/12/13 00:58:22;;;;;;;5.20;2.70;;;;;;;18.59;51.46;101476.16;5095090;28;20486;-59
2021/12/13 01:01:14;;;;;;;5.20;2.83;;;;;;;18.59;51.16;101472.44;5107000;28;20316;-59
2021/12/13 01:03:42;;;;;;;6.10;2.83;;;;;;;18.64;51.29;101473.06;5086263;28;20949;-59
2021/12/13 01:06:29;;;;;;;5.03;2.47;;;;;;;18.59;51.47;101463.84;5110694;28;20436;-59
2021/12/13 01:09:42;;;;;;;4.40;2.40;;;;;;;18.65;51.26;101462.44;5111409;28;20411;-59
2021/12/13 01:12:13;;;;;;;8.30;2.63;;;;;;;18.56;51.84;101468.25;5107591;28;20420;-59
2021/12/13 01:14:56;;;;;;;7.47;3.17;;;;;;;18.57;51.38;101469.91;5101788;28;20567;-59
2021/12/13 01:17:45;;;;;;;7.07;3.73;;;;;;;18.57;51.44;101472.78;5091251;28;20897;-59
2021/12/13 01:20:28;;;;;;;5.67;2.30;;;;;;;18.54;51.74;101470.66;5090919;28;20927;-59
2021/12/13 01:23:01;;;;;;;5.27;2.60;;;;;;;18.55;51.56;101465.75;5095744;28;20922;-59
2021/12/13 01:28:24;;;;;;;6.10;2.50;;;;;;;18.53;51.59;101471.84;5090995;28;21104;-59
2021/12/13 01:31:02;;;;;;;4.27;2.40;;;;;;;18.54;51.68;101478.38;5091119;28;20408;-59
2021/12/13 01:33:28;;;;;;;4.20;2.53;;;;;;;18.53;51.47;101480.41;5102111;28;20977;-60
2021/12/13 01:35:55;;;;;;;9.23;2.60;;;;;;;18.52;51.82;101481.59;5101943;28;20902;-59
2021/12/13 01:38:35;;;;;;;5.73;2.40;;;;;;;18.52;51.44;101478.72;5086222;28;20452;-59
2021/12/13 01:41:15;;;;;;;4.17;2.30;;;;;;;18.51;51.57;101481.97;5095985;28;20499;-59
2021/12/13 01:43:50;;;;;;;4.90;2.60;;;;;;;18.51;51.66;101479.91;5094616;28;20431;-60
2021/12/13 01:46:17;;;;;;;4.83;2.33;;;;;;;18.51;51.72;101487.69;5107048;28;20430;-59
2021/12/13 01:48:44;;;;;;;6.37;2.40;;;;;;;18.49;52.00;101490.03;5094623;28;20429;-59
2021/12/13 01:51:11;;;;;;;5.60;2.40;;;;;;;18.51;51.72;101490.53;5094520;28;20423;-59
2021/12/13 01:53:49;;;;;;;5.40;2.80;;;;;;;18.51;51.98;101479.91;5105591;27;20484;-59
2021/12/13 02:01:58;;;;;;;5.67;2.77;;;;;;;18.55;51.61;101486.63;5114525;28;20464;-59
2021/12/13 02:04:24;;;;;;;5.57;2.40;;;;;;;18.53;51.50;101471.00;5105708;28;20428;-59
2021/12/13 02:06:51;;;;;;;4.03;2.70;;;;;;;18.53;51.50;101468.97;5112374;28;20422;-59
2021/12/13 02:09:23;;;;;;;5.27;3.00;;;;;;;18.52;51.65;101473.00;5112445;28;20193;-59
2021/12/13 02:11:54;;;;;;;4.67;2.57;;;;;;;18.50;51.95;101474.53;5107230;28;20419;-59
2021/12/13 02:14:21;;;;;;;6.53;2.70;;;;;;;18.49;51.57;101479.44;5092996;28;20541;-59
2021/12/13 02:17:00;;;;;;;6.03;3.07;;;;;;;18.52;51.68;101475.06;5103893;28;20466;-59
2021/12/13 02:19:39;;;;;;;5.37;2.20;;;;;;;18.56;51.73;101481.75;5113682;28;20420;-59
2021/12/13 02:22:08;;;;;;;4.97;2.57;;;;;;;18.46;51.89;101488.72;5108079;28;20432;-59
2021/12/13 02:24:36;;;;;;;4.13;2.47;;;;;;;18.50;51.51;101495.41;5109296;28;20434;-59
2021/12/13 02:27:01;;;;;;;4.70;2.80;;;;;;;18.54;51.57;101502.09;5095152;28;20906;-59
2021/12/13 02:29:35;;;;;;;3.90;2.27;;;;;;;18.52;51.36;101490.16;5074544;28;20432;-59
2021/12/13 02:32:01;;;;;;;3.33;2.20;;;;;;;18.53;51.47;101499.59;5095343;28;20828;-59
2021/12/13 02:34:29;;;;;;;4.37;2.60;;;;;;;18.48;51.50;101500.66;5099555;28;20436;-59
2021/12/13 02:36:55;;;;;;;5.70;2.43;;;;;;;18.50;51.54;101498.28;5097008;27;20653;-60
2021/12/13 02:39:22;;;;;;;4.80;2.47;;;;;;;18.50;51.60;101501.13;5104583;27;20436;-59
2021/12/13 02:41:48;;;;;;;3.87;2.00;;;;;;;18.53;51.68;101508.16;5113434;28;20218;-59
2021/12/13 02:44:36;;;;;;;4.03;2.50;;;;;;;18.49;51.46;101507.19;5113071;28;20419;-59
2021/12/13 02:47:03;;;;;;;4.00;2.60;;;;;;;18.48;51.60;101496.94;5111404;28;20201;-59
2021/12/13 02:49:29;;;;;;;5.40;2.90;;;;;;;18.52;51.77;101498.75;5097399;28;20455;-59
2021/12/13 02:51:57;;;;;;;3.90;2.13;;;;;;;18.50;52.00;101506.00;5075401;27;20413;-59
2021/12/13 02:54:28;;;;;;;3.30;2.20;;;;;;;18.51;51.75;101508.50;5117386;27;20193;-59
2021/12/13 02:57:06;;;;;;;5.40;2.60;;;;;;;18.49;51.86;101501.47;5086777;28;20463;-59
2021/12/13 02:59:33;;;;;;;3.90;2.20;;;;;;;18.52;51.53;101507.31;5095160;28;20502;-59
2021/12/13 03:02:01;;;;;;;4.77;2.40;;;;;;;18.47;52.13;101504.69;5107895;28;20820;-59
2021/12/13 03:04:27;;;;;;;4.30;2.60;;;;;;;18.48;51.79;101494.94;5089396;28;21101;-58
2021/12/13 03:07:16;;;;;;;5.20;2.50;;;;;;;18.44;51.93;101501.69;5112628;28;20506;-59
2021/12/13 03:09:43;;;;;;;4.40;2.33;;;;;;;18.42;52.04;101504.91;5103852;28;20553;-59
2021/12/13 03:12:11;;;;;;;6.03;2.40;;;;;;;18.43;51.82;101500.03;5112666;28;20476;-59
2021/12/13 03:14:42;;;;;;;5.57;3.03;;;;;;;18.46;52.21;101505.06;5109425;28;20462;-59
2021/12/13 03:17:18;;;;;;;2.70;1.70;;;;;;;18.43;51.73;101512.31;5092618;28;20772;-59
2021/12/13 03:20:18;;;;;;;4.10;2.07;;;;;;;18.44;51.74;101499.69;5093444;28;20794;-59
2021/12/13 03:23:21;;;;;;;6.33;2.90;;;;;;;18.45;51.91;101501.34;5062461;28;20427;-59
2021/12/13 03:26:09;;;;;;;5.43;2.40;;;;;;;18.39;52.23;101502.75;5092029;28;20395;-59
2021/12/13 03:28:48;;;;;;;3.40;2.13;;;;;;;18.38;51.63;101503.97;5094255;28;20427;-59
2021/12/13 03:31:22;;;;;;;5.90;2.70;;;;;;;18.42;51.70;101504.91;5087103;28;21001;-59
2021/12/13 03:33:55;;;;;;;4.57;2.37;;;;;;;18.43;51.55;101502.88;5112328;28;20414;-59
2021/12/13 03:36:46;;;;;;;4.10;2.40;;;;;;;18.42;51.88;101504.91;5113274;28;20427;-60
2021/12/13 03:39:18;;;;;;;4.10;2.20;;;;;;;18.46;51.87;101510.78;5095106;28;20440;-59
2021/12/13 03:41:46;;;;;;;4.13;2.30;;;;;;;18.41;52.10;101503.22;5095213;28;20488;-59
2021/12/13 03:44:16;;;;;;;4.97;2.60;;;;;;;18.46;51.72;101503.03;5094756;28;20440;-59
2021/12/13 03:46:44;;;;;;;3.60;2.40;;;;;;;18.47;51.87;101501.81;5107222;28;20419;-59
2021/12/13 03:49:10;;;;;;;4.77;2.57;;;;;;;18.46;51.62;101505.88;5101179;28;20436;-59
2021/12/13 03:51:37;;;;;;;3.60;2.60;;;;;;;18.40;52.06;101501.56;5105703;28;20446;-59
2021/12/13 03:54:04;;;;;;;4.80;2.70;;;;;;;18.40;51.98;101513.00;5111545;28;20276;-59
2021/12/13 03:56:33;;;;;;;4.70;2.23;;;;;;;18.39;51.83;101507.63;5108694;28;20424;-59
2021/12/13 03:59:02;;;;;;;3.27;2.13;;;;;;;18.45;51.62;101500.50;5102658;28;21051;-59
2021/12/13 04:01:34;;;;;;;4.77;1.93;;;;;;;18.45;51.63;101507.06;5112008;28;20906;-59
2021/12/13 04:04:00;;;;;;;3.93;2.40;;;;;;;18.43;51.87;101502.88;5106765;28;20916;-59
2021/12/13 04:06:26;;;;;;;5.90;2.83;;;;;;;18.46;51.58;101502.19;5096688;28;20991;-59
2021/12/13 04:08:55;;;;;;;4.80;2.20;;;;;;;18.46;52.03;101500.16;5090764;28;20492;-60
2021/12/13 04:11:21;;;;;;;4.53;2.30;;;;;;;18.41;51.70;101502.41;5081555;28;20186;-59
2021/12/13 04:13:54;;;;;;;5.23;2.30;;;;;;;18.43;51.82;101509.47;5111861;28;20415;-59
2021/12/13 04:16:47;;;;;;;3.47;2.20;;;;;;;18.41;51.82;101511.81;5111871;28;20415;-59
2021/12/13 04:19:15;;;;;;;4.23;2.37;;;;;;;18.46;51.53;101505.88;5088973;28;20440;-59
2021/12/13 04:21:44;;;;;;;3.27;1.93;;;;;;;18.53;51.39;101506.16;5121797;27;20479;-59
2021/12/13 04:24:13;;;;;;;5.23;1.97;;;;;;;18.42;51.85;101504.91;5132141;27;20413;-60
2021/12/13 04:26:51;;;;;;;4.87;2.30;;;;;;;18.46;51.67;101505.88;5132681;27;20418;-58
2021/12/13 04:29:26;;;;;;;2.87;1.90;;;;;;;18.45;51.69;101509.94;5107828;27;20438;-59
2021/12/13 04:31:51;;;;;;;6.50;2.40;;;;;;;18.51;51.30;101502.78;5094101;28;20424;-59
2021/12/13 04:34:17;;;;;;;3.23;2.10;;;;;;;18.46;51.63;101499.34;5092976;28;20947;-59
2021/12/13 04:36:45;;;;;;;4.80;2.43;;;;;;;18.43;51.67;101500.88;5077706;28;20562;-59
2021/12/13 04:39:14;;;;;;;2.90;1.70;;;;;;;18.43;52.08;101500.03;5130255;27;20208;-59
2021/12/13 04:41:49;;;;;;;3.70;2.13;;;;;;;18.41;52.01;101497.50;5097723;28;20778;-59
2021/12/13 04:44:52;;;;;;;4.37;2.20;;;;;;;18.42;51.84;101493.47;5090699;28;20498;-59
2021/12/13 04:47:50;;;;;;;4.40;2.13;;;;;;;18.40;51.86;101493.00;5061174;28;20424;-59
2021/12/13 04:50:22;;;;;;;4.70;2.27;;;;;;;18.45;51.73;101489.91;5093512;28;20440;-59
2021/12/13 04:52:48;;;;;;;4.77;2.77;;;;;;;18.45;51.85;101498.50;5110331;28;20823;-59
2021/12/13 04:55:17;;;;;;;4.20;2.33;;;;;;;18.40;52.00;101487.28;5090479;28;20511;-59
2021/12/13 04:57:43;;;;;;;3.40;2.30;;;;;;;18.42;52.14;101496.31;5110368;28;20197;-59
2021/12/13 05:00:14;;;;;;;3.17;1.80;;;;;;;18.45;51.71;101487.06;5109954;28;20463;-60
2021/12/13 05:02:52;;;;;;;3.93;1.97;;;;;;;18.41;51.92;101483.22;5080293;28;20261;-59
2021/12/13 05:05:17;;;;;;;3.13;1.93;;;;;;;18.45;51.87;101481.34;5090320;28;20404;-59
2021/12/13 05:07:45;;;;;;;4.60;2.57;;;;;;;18.48;51.49;101482.66;5074126;28;20923;-59
2021/12/13 05:10:10;;;;;;;4.50;2.50;;;;;;;18.44;51.90;101488.25;5099357;28;20247;-59
2021/12/13 05:12:36;;;;;;;3.10;1.77;;;;;;;18.44;51.76;101484.53;5115451;28;20427;-59
2021/12/13 05:15:05;;;;;;;3.60;2.20;;;;;;;18.46;51.51;101485.84;5110220;28;20200;-59
2021/12/13 05:17:53;;;;;;;3.60;2.23;;;;;;;18.42;52.02;101479.16;5099180;28;20194;-60
2021/12/13 05:20:23;;;;;;;3.93;2.13;;;;;;;18.44;51.62;101485.38;5078744;28;20498;-59
2021/12/13 05:22:56;;;;;;;5.73;2.70;;;;;;;18.49;51.69;101484.31;5107987;28;20427;-60
2021/12/13 05:25:27;;;;;;;4.77;2.13;;;;;;;18.44;51.72;101485.38;5094464;28;20405;-60
2021/12/13 05:28:13;;;;;;;4.50;2.30;;;;;;;18.43;51.78;101489.44;5095302;28;20423;-59
2021/12/13 05:31:09;;;;;;;5.87;2.60;;;;;;;18.44;51.62;101491.09;5096561;28;20770;-59
2021/12/13 05:33:38;;;;;;;3.80;2.00;;;;;;;18.42;51.86;101496.31;5089419;28;20531;-59
2021/12/13 05:36:09;;;;;;;3.87;2.50;;;;;;;18.41;51.69;101505.28;5095820;28;20994;-59
2021/12/13 05:38:42;;;;;;;3.77;2.20;;;;;;;18.43;51.82;101503.75;5127738;27;20511;-59
2021/12/13 05:41:12;;;;;;;3.43;2.37;;;;;;;18.48;51.82;101502.66;5135324;27;20403;-59
2021/12/13 05:43:49;;;;;;;5.13;2.00;;;;;;;18.42;51.78;101502.03;5136172;27;20403;-59
2021/12/13 05:46:18;;;;;;;3.40;1.87;;;;;;;18.43;51.53;101500.03;5108875;27;20472;-59
2021/12/13 05:48:48;;;;;;;4.53;2.73;;;;;;;18.38;51.82;101498.25;5101273;28;20426;-59
2021/12/13 05:51:34;;;;;;;5.03;2.40;;;;;;;18.43;51.86;101506.59;5113649;28;20942;-60
2021/12/13 05:53:59;;;;;;;4.50;2.27;;;;;;;18.41;52.06;101508.94;5111962;28;20416;-59
2021/12/13 05:56:27;;;;;;;3.00;1.60;;;;;;;18.41;51.82;101506.09;5107703;28;20432;-59
2021/12/13 05:58:58;;;;;;;2.93;2.00;;;;;;;18.38;52.01;101520.25;5093290;28;20201;-59
2021/12/13 06:01:48;;;;;;;3.43;1.60;;;;;;;18.39;51.75;101508.47;5082610;28;20846;-59
2021/12/13 06:04:22;;;;;;;3.50;2.20;;;;;;;18.41;51.58;101508.94;5087532;28;20511;-59
2021/12/13 06:06:53;;;;;;;4.00;2.10;;;;;;;18.39;51.73;101511.34;5096061;28;20427;-59
2021/12/13 06:09:40;;;;;;;5.37;2.17;;;;;;;18.43;51.87;101515.19;5107541;28;20435;-59
2021/12/13 06:12:07;;;;;;;5.03;1.97;;;;;;;18.43;51.56;101508.59;5113500;28;20423;-59
2021/12/13 06:14:32;;;;;;;3.33;2.27;;;;;;;18.44;51.46;101496.81;5107714;28;20512;-59
2021/12/13 06:17:18;;;;;;;7.23;2.77;;;;;;;18.34;51.66;101502.97;5092971;28;20781;-59
2021/12/13 06:19:58;;;;;;;4.87;2.33;;;;;;;18.40;51.39;101510.16;5096203;28;20184;-59
2021/12/13 06:22:25;;;;;;;5.03;2.60;;;;;;;18.44;51.48;101504.56;5076849;28;20455;-59
2021/12/13 06:24:50;;;;;;;6.47;2.70;;;;;;;18.39;51.42;101507.63;5095685;28;20957;-59
2021/12/13 06:27:24;;;;;;;3.43;2.23;;;;;;;18.45;51.47;101509.94;5106581;28;20415;-59
2021/12/13 06:29:52;;;;;;;5.20;2.37;;;;;;;18.44;51.28;101516.84;5113484;28;20185;-59
2021/12/13 06:32:49;;;;;;;6.60;2.70;;;;;;;18.47;51.18;101518.97;5102607;28;20438;-59
2021/12/13 06:35:44;;;;;;;6.67;2.77;;;;;;;18.48;51.52;101531.25;5098628;27;21159;-59
2021/12/13 06:38:18;;;;;;;5.37;3.03;;;;;;;18.47;51.23;101526.75;5108609;28;20474;-59
2021/12/13 06:40:56;;;;;;;4.27;2.60;;;;;;;18.41;51.51;101526.09;5113218;28;20434;-59
2021/12/13 06:43:40;;;;;;;4.97;2.37;;;;;;;18.42;51.25;101524.91;5105323;28;20441;-59
2021/12/13 06:46:50;;;;;;;9.07;2.47;;;;;;;18.40;51.74;101535.88;5105193;28;20522;-59
2021/12/13 06:49:35;;;;;;;10.27;2.60;;;;;;;18.46;51.30;101536.50;5083801;28;20429;-60
2021/12/13 06:52:03;;;;;;;6.20;2.20;;;;;;;18.47;51.34;101530.41;5099256;28;20472;-59
2021/12/13 06:54:33;;;;;;;10.03;2.63;;;;;;;18.45;51.25;101532.81;5093523;28;20839;-59
2021/12/13 06:57:08;;;;;;;4.67;2.20;;;;;;;18.46;51.65;101534.47;5096149;28;20824;-60
2021/12/13 06:59:36;;;;;;;4.60;2.60;;;;;;;18.45;51.35;101527.09;5112589;27;20510;-59
2021/12/13 07:02:08;;;;;;;6.97;2.47;;;;;;;18.47;51.22;101529.59;5112617;28;20484;-59
2021/12/13 07:05:05;;;;;;;6.77;2.40;;;;;;;18.49;51.40;101530.94;5113842;28;20411;-59
2021/12/13 07:07:36;;;;;;;6.23;2.30;;;;;;;18.49;51.51;101533.78;5102575;28;20435;-59
2021/12/13 07:10:06;;;;;;;8.57;2.67;;;;;;;18.50;51.26;101541.16;5112578;28;20522;-59
2021/12/13 07:12:32;;;;;;;5.10;2.40;;;;;;;18.46;51.56;101533.66;5103628;28;20436;-59
2021/12/13 07:14:58;;;;;;;3.63;2.20;;;;;;;18.48;51.42;101534.97;5112681;28;20968;-59
2021/12/13 07:17:33;;;;;;;3.73;2.57;;;;;;;18.48;51.28;101537.84;5094279;28;20201;-59
2021/12/13 07:19:59;;;;;;;6.33;2.50;;;;;;;18.50;51.62;101529.72;5113544;28;20839;-59
2021/12/13 07:22:27;;;;;;;4.70;2.20;;;;;;;18.46;51.49;101540.19;5102615;28;20507;-59
2021/12/13 07:25:00;;;;;;;8.77;2.90;;;;;;;18.45;51.57;101532.81;5112570;28;20477;-59
2021/12/13 07:27:32;;;;;;;4.73;2.10;;;;;;;18.46;51.46;101534.47;5104936;28;20432;-60
2021/12/13 07:30:09;;;;;;;6.83;3.93;;;;;;;18.27;51.32;101536.97;5101150;28;20451;-59
2021/12/13 07:32:37;;;;;;;8.17;5.70;;;;;;;17.78;49.98;101534.16;5106394;28;20503;-59
2021/12/13 07:35:12;;;;;;;13.10;7.60;;;;;;;17.51;49.31;101549.75;5110691;27;20432;-60
2021/12/13 07:37:45;;;;;;;10.27;6.70;;;;;;;17.73;44.73;101560.91;5108355;27;21241;-61
2021/12/13 07:40:13;;;;;;;9.87;6.50;;;;;;;18.26;44.34;101563.88;5112324;27;20431;-60
2021/12/13 07:42:38;;;;;;;12.30;7.03;;;;;;;18.87;44.92;101557.28;5105634;28;20447;-60
2021/12/13 07:45:04;;;;;;;9.43;6.53;;;;;;;19.50;44.84;101564.47;5110417;27;20556;-60
2021/12/13 07:47:31;;;;;;;17.10;7.23;;;;;;;19.78;44.20;101569.16;5075138;28;20661;-59
2021/12/13 07:49:57;;;;;;;10.87;7.03;;;;;;;19.82;44.81;101567.22;5086112;28;20178;-59
2021/12/13 07:52:28;;;;;;;10.83;5.97;;;;;;;20.12;45.15;101571.50;5090000;28;20561;-60
2021/12/13 07:54:54;;;;;;;11.37;6.23;;;;;;;20.12;44.56;101562.09;5090337;28;20515;-60
2021/12/13 07:57:22;;;;;;;13.27;6.17;;;;;;;19.73;45.54;101574.28;5078102;28;20459;-60
2021/12/13 07:59:48;;;;;;;10.57;5.80;;;;;;;19.62;45.94;101573.09;5091908;28;20186;-59
2021/12/13 08:02:25;;;;;;;11.03;5.70;;;;;;;19.47;46.26;101574.59;5089926;28;20436;-60
2021/12/13 08:04:55;;;;;;;9.13;5.70;;;;;;;19.59;45.86;101571.75;5090064;28;20169;-60
2021/12/13 08:07:25;;;;;;;12.97;6.00;;;;;;;19.86;45.63;101573.91;5095728;28;20458;-60
2021/12/13 08:09:57;;;;;;;7.93;5.70;;;;;;;19.74;45.72;101576.78;5097219;28;20923;-59
2021/12/13 08:12:22;;;;;;;8.47;4.70;;;;;;;19.74;44.64;101587.41;5103613;28;20453;-59
2021/12/13 08:14:49;;;;;;;10.93;5.10;;;;;;;19.42;45.56;101583.44;5099242;28;20516;-59
2021/12/13 08:17:24;;;;;;;10.10;5.77;;;;;;;19.53;45.76;101583.81;5108255;28;20615;-59
2021/12/13 08:19:58;;;;;;;12.17;5.57;;;;;;;19.38;45.26;101579.63;5098595;28;20454;-60
2021/12/13 08:22:28;;;;;;;9.73;6.10;;;;;;;19.04;44.83;101582.84;5090354;28;20493;-61
2021/12/13 08:24:56;;;;;;;14.80;7.87;;;;;;;18.92;42.99;101597.09;5091457;28;20452;-60
2021/12/13 08:27:26;;;;;;;13.90;7.20;;;;;;;18.83;43.11;101596.38;5092365;28;20428;-60
2021/12/13 08:30:06;;;;;;;11.60;6.80;;;;;;;18.95;42.05;101589.84;5088874;28;20902;-60
2021/12/13 08:32:32;;;;;;;12.37;7.23;;;;;;;18.93;42.57;101584.50;5088484;28;20806;-60
2021/12/13 08:34:58;;;;;;;9.10;6.13;;;;;;;18.86;43.27;101589.13;5090608;28;20423;-60
2021/12/13 08:37:26;;;;;;;11.87;7.10;;;;;;;18.84;43.57;101582.91;5115495;27;20205;-59
2021/12/13 08:39:54;;;;;;;9.97;6.93;;;;;;;18.81;43.55;101583.63;5121952;27;20439;-60
2021/12/13 08:42:21;;;;;;;10.80;6.20;;;;;;;18.73;43.73;101588.25;5097905;28;20432;-60
2021/12/13 08:45:06;;;;;;;9.40;5.37;;;;;;;18.66;44.16;101584.28;5094254;27;20428;-60
2021/12/13 08:47:44;;;;;;;13.40;7.43;;;;;;;18.55;44.28;101588.72;5089459;28;20831;-60
2021/12/13 08:50:14;;;;;;;10.53;6.90;;;;;;;18.48;44.53;101586.44;5100280;28;20434;-60
2021/12/13 08:52:41;;;;;;;12.17;7.53;;;;;;;18.52;44.62;101589.44;5096238;28;20789;-60
2021/12/13 08:55:13;;;;;;;13.73;6.93;;;;;;;18.51;44.89;101582.88;5090068;28;20444;-60
2021/12/13 08:57:44;;;;;;;13.37;7.67;;;;;;;18.47;44.72;101581.06;5093443;28;20478;-60
2021/12/13 09:00:12;;;;;;;12.70;7.87;;;;;;;18.49;44.41;101590.13;5096857;28;20527;-61
2021/12/13 09:02:41;;;;;;;13.97;7.80;;;;;;;18.44;44.77;101584.63;5098729;28;20868;-59
2021/12/13 09:05:34;;;;;;;17.20;8.13;;;;;;;18.45;44.71;101584.28;5109380;28;20423;-60
2021/12/13 09:08:05;;;;;;;11.60;7.30;;;;;;;18.61;45.06;101588.16;5097375;28;20464;-59
2021/12/13 09:10:40;;;;;;;16.90;7.70;;;;;;;18.65;45.04;101588.28;5090119;28;20525;-59
2021/12/13 09:13:06;;;;;;;12.73;7.00;;;;;;;18.75;45.02;101596.44;5088105;28;20969;-59
2021/12/13 09:15:34;;;;;;;14.13;7.83;;;;;;;18.81;44.99;101587.28;5106530;28;20439;-59
2021/12/13 09:17:59;;;;;;;17.50;7.30;;;;;;;18.71;44.89;101587.72;5100369;28;20205;-60
2021/12/13 09:20:38;;;;;;;13.80;6.30;;;;;;;18.63;45.62;101580.09;5106061;28;21068;-60
2021/12/13 09:23:41;;;;;;;13.63;7.70;;;;;;;18.61;44.67;101587.34;5108605;28;20685;-59
2021/12/13 09:26:12;;;;;;;12.53;6.77;;;;;;;18.61;44.83;101593.06;5093619;28;20805;-60
2021/12/13 09:28:47;;;;;;;14.23;7.57;;;;;;;18.59;45.52;101590.56;5103184;28;20422;-60
2021/12/13 09:31:25;;;;;;;14.90;6.57;;;;;;;18.53;46.05;101586.25;5090215;28;20420;-59
2021/12/13 09:33:53;;;;;;;14.77;6.50;;;;;;;18.54;45.95;101582.19;5098894;28;21257;-59
2021/12/13 09:36:30;;;;;;;14.43;6.77;;;;;;;18.53;46.33;101577.66;5086608;28;20454;-59
2021/12/13 09:38:58;;;;;;;12.97;6.10;;;;;;;18.54;46.88;101584.19;5098414;28;20521;-59
2021/12/13 09:41:38;;;;;;;15.60;6.90;;;;;;;18.44;47.46;101571.16;5108764;28;20419;-60
2021/12/13 09:44:08;;;;;;;17.20;7.23;;;;;;;18.41;47.41;101568.19;5098305;28;20874;-59
2021/12/13 09:47:10;;;;;;;10.70;6.13;;;;;;;18.38;47.85;101578.28;5096937;28;20986;-59
2021/12/13 09:49:50;;;;;;;13.93;6.67;;;;;;;18.37;47.27;101575.78;5071520;28;20452;-59
2021/12/13 09:52:18;;;;;;;16.80;6.30;;;;;;;18.39;47.27;101579.13;5070391;28;20851;-59
2021/12/13 09:55:04;;;;;;;13.43;6.70;;;;;;;18.39;47.75;101574.25;5099651;28;20438;-59
2021/12/13 09:57:33;;;;;;;12.67;6.13;;;;;;;18.52;47.43;101569.41;5091270;28;20570;-59
2021/12/13 09:59:59;;;;;;;12.90;5.90;;;;;;;18.54;48.25;101569.91;5095666;28;20466;-59
2021/12/13 10:02:30;;;;;;;19.50;6.60;;;;;;;18.59;48.66;101567.66;5112972;28;20411;-59
2021/12/13 10:04:56;;;;;;;16.50;6.03;;;;;;;18.69;48.99;101566.38;5097551;28;20194;-59
2021/12/13 10:07:30;;;;;;;15.37;5.83;;;;;;;18.61;49.12;101564.47;5091047;28;20439;-60
2021/12/13 10:10:01;;;;;;;15.30;5.77;;;;;;;18.63;49.71;101556.34;5095988;28;20196;-61
2021/12/13 10:12:43;;;;;;;18.03;6.03;;;;;;;18.58;49.11;101557.41;5108103;28;21021;-60
2021/12/13 10:15:19;;;;;;;11.93;6.90;;;;;;;18.48;47.88;101552.13;5091798;28;20511;-60
2021/12/13 10:17:49;;;;;;;19.70;7.37;;;;;;;18.37;46.47;101545.16;5104247;28;20470;-60
2021/12/13 10:20:21;;;;;;;17.03;7.87;;;;;;;18.36;46.82;101545.53;5094914;28;20531;-59
2021/12/13 10:22:47;;;;;;;18.90;6.87;;;;;;;18.42;47.32;101535.53;5090911;28;20460;-59
2021/12/13 10:25:18;;;;;;;15.83;6.57;;;;;;;18.39;47.13;101541.94;5104467;28;20541;-60
2021/12/13 10:27:46;;;;;;;18.67;7.50;;;;;;;18.46;46.98;101542.22;5106613;28;20469;-60
2021/12/13 10:30:15;;;;;;;15.30;7.80;;;;;;;18.44;47.10;101542.56;5102999;28;20444;-61
2021/12/13 10:32:41;;;;;;;13.43;6.60;;;;;;;18.49;48.01;101542.38;5095465;28;20429;-59
2021/12/13 10:35:13;;;;;;;15.90;6.00;;;;;;;18.57;48.39;101532.84;5100786;28;20431;-60
2021/12/13 10:37:41;;;;;;;20.40;7.27;;;;;;;18.59;48.00;101527.63;5116416;27;20208;-60
2021/12/13 10:40:16;;;;;;;13.97;6.83;;;;;;;18.49;46.85;101528.06;5121296;27;20427;-60
2021/12/13 10:42:49;;;;;;;12.07;7.10;;;;;;;18.46;45.89;101517.31;5080826;28;20462;-60
2021/12/13 10:45:18;;;;;;;17.67;6.83;;;;;;;18.37;44.98;101525.13;5090564;28;20437;-59
2021/12/13 10:47:45;;;;;;;13.20;6.73;;;;;;;18.37;45.42;101530.84;5103684;28;20428;-60
2021/12/13 10:50:15;;;;;;;16.00;6.40;;;;;;;18.49;45.50;101527.22;5113704;27;20491;-59
2021/12/13 10:52:42;;;;;;;13.97;6.40;;;;;;;18.70;45.76;101523.13;5107874;28;20440;-59
2021/12/13 10:55:12;;;;;;;11.60;5.50;;;;;;;18.78;45.04;101525.06;5111296;28;20420;-60
2021/12/13 10:57:43;;;;;;;9.53;4.80;;;;;;;18.85;45.40;101513.03;5111259;28;20455;-60
2021/12/13 11:00:22;;;;;;;12.60;5.03;;;;;;;18.87;45.49;101522.13;5108360;28;20468;-60
2021/12/13 11:02:54;;;;;;;9.63;4.77;;;;;;;18.94;45.69;101519.50;5092514;28;20419;-60
2021/12/13 11:05:20;;;;;;;12.23;4.73;;;;;;;18.97;46.20;101524.53;5110579;28;20562;-60
2021/12/13 11:07:45;;;;;;;6.27;4.20;;;;;;;18.90;46.08;101507.09;5110951;28;20439;-60
2021/12/13 11:10:24;;;;;;;8.23;4.33;;;;;;;18.95;46.29;101512.56;5112376;28;20550;-60
2021/12/13 11:12:51;;;;;;;6.50;4.53;;;;;;;18.91;46.33;101512.47;5113532;28;20173;-60
2021/12/13 11:15:20;;;;;;;9.00;4.80;;;;;;;18.91;46.63;101511.63;5089342;28;20476;-60
2021/12/13 11:17:45;;;;;;;7.50;4.07;;;;;;;18.91;46.76;101506.72;5108347;28;20478;-60
2021/12/13 11:20:27;;;;;;;8.27;4.07;;;;;;;18.90;46.87;101515.66;5108803;28;20522;-60
2021/12/13 11:22:52;;;;;;;7.37;4.30;;;;;;;18.82;47.17;101508.03;5106271;28;20260;-59
2021/12/13 11:25:25;;;;;;;7.00;4.20;;;;;;;18.83;47.54;101516.28;5110422;28;20503;-60
2021/12/13 11:27:51;;;;;;;8.67;4.30;;;;;;;18.84;47.74;101511.38;5110647;28;20170;-60
2021/12/13 11:30:20;;;;;;;7.27;3.73;;;;;;;18.77;47.75;101523.38;5111899;28;20487;-60
2021/12/13 11:32:58;;;;;;;6.30;3.70;;;;;;;18.79;47.99;101518.16;5102257;28;20194;-60
2021/12/13 11:35:44;;;;;;;7.50;4.07;;;;;;;18.72;48.68;101517.88;5094264;28;20420;-60
2021/12/13 11:38:47;;;;;;;6.80;3.90;;;;;;;18.80;48.13;101516.13;5103086;27;20522;-60
2021/12/13 11:41:30;;;;;;;5.77;3.90;;;;;;;18.75;48.60;101514.31;5112197;28;20482;-60
2021/12/13 11:44:33;;;;;;;5.90;3.70;;;;;;;18.73;48.75;101519.56;5112203;28;20987;-59
2021/12/13 11:47:29;;;;;;;5.47;3.33;;;;;;;18.82;48.67;101513.75;5101388;28;20472;-60
2021/12/13 11:49:59;;;;;;;7.47;3.60;;;;;;;18.81;48.51;101521.50;5098625;28;20499;-60
2021/12/13 11:52:49;;;;;;;6.83;3.60;;;;;;;18.77;48.64;101517.66;5099639;28;20435;-60
2021/12/13 11:55:46;;;;;;;5.47;3.33;;;;;;;18.79;48.76;101523.03;5111959;28;20403;-60
2021/12/13 11:58:27;;;;;;;6.17;3.17;;;;;;;18.79;48.78;101517.31;5104987;28;21011;-60
2021/12/13 12:01:20;;;;;;;4.90;3.20;;;;;;;18.79;48.96;101514.44;5077855;28;20959;-60
2021/12/13 12:04:06;;;;;;;6.67;3.70;;;;;;;18.80;48.96;101513.25;5093532;28;20424;-60